createdAt,value
2019-02-20T00:04:47.017Z,19
2019-02-20T00:09:49.529Z,20
2019-02-20T00:14:52.107Z,22
2019-02-20T00:19:54.440Z,19
2019-02-20T00:24:56.866Z,20
2019-02-20T00:29:59.332Z,24
2019-02-20T00:35:01.852Z,23
2019-02-20T00:40:04.233Z,21
2019-02-20T00:45:06.750Z,19
2019-02-20T00:50:09.290Z,22
2019-02-20T00:55:11.642Z,22
2019-02-20T01:00:14.111Z,25
2019-02-20T01:05:16.601Z,23
2019-02-20T01:10:19.110Z,18
2019-02-20T01:15:21.531Z,21
2019-02-20T01:20:23.994Z,20
2019-02-20T01:25:26.457Z,19
2019-02-20T01:30:28.918Z,19
2019-02-20T01:35:31.494Z,27
2019-02-20T01:40:33.924Z,19
2019-02-20T01:45:36.286Z,22
2019-02-20T01:50:39.072Z,23
2019-02-20T01:55:41.249Z,21
2019-02-20T02:00:43.702Z,23
2019-02-20T02:05:46.293Z,24
2019-02-20T02:10:48.692Z,22
2019-02-20T02:15:51.087Z,22
2019-02-20T02:20:53.567Z,24
2019-02-20T02:25:56.006Z,23
2019-02-20T02:30:58.543Z,25
2019-02-20T02:36:00.951Z,26
2019-02-20T02:41:03.407Z,27
2019-02-20T02:46:05.913Z,26
2019-02-20T02:51:08.349Z,21
2019-02-20T02:56:10.806Z,25
2019-02-20T03:01:13.436Z,26
2019-02-20T03:06:15.759Z,30
2019-02-20T03:11:18.213Z,22
2019-02-20T03:16:20.735Z,22
2019-02-20T03:21:23.125Z,24
2019-02-20T03:26:25.603Z,29
2019-02-20T03:31:28.099Z,25
2019-02-20T03:36:30.600Z,24
2019-02-20T03:41:32.997Z,28
2019-02-20T03:46:35.482Z,22
2019-02-20T03:51:37.947Z,23
2019-02-20T03:56:40.404Z,28
2019-02-20T04:01:42.856Z,17
2019-02-20T04:06:45.328Z,22
2019-02-20T04:11:47.878Z,27
2019-02-20T04:16:50.264Z,23
2019-02-20T04:21:52.765Z,23
2019-02-20T04:26:55.190Z,25
2019-02-20T04:31:57.650Z,25
2019-02-20T04:37:00.243Z,23
2019-02-20T04:42:02.590Z,25
2019-02-20T04:47:05.051Z,22
2019-02-20T04:52:07.517Z,26
2019-02-20T04:57:10.020Z,25
2019-02-20T05:02:17.500Z,24
2019-02-20T05:07:20.177Z,29
2019-02-20T05:12:17.445Z,24
2019-02-20T05:17:19.821Z,20
2019-02-20T05:22:22.439Z,23
2019-02-20T05:27:24.765Z,25
2019-02-20T05:32:27.228Z,23
2019-02-20T05:37:29.703Z,24
2019-02-20T05:42:32.142Z,24
2019-02-20T05:47:34.616Z,24
2019-02-20T05:52:37.039Z,28
2019-02-20T05:57:39.500Z,23
2019-02-20T06:02:41.955Z,19
2019-02-20T06:07:44.444Z,25
2019-02-20T06:12:46.890Z,22
2019-02-20T06:17:49.351Z,21
2019-02-20T06:22:51.857Z,25
2019-02-20T06:27:54.293Z,25
2019-02-20T06:32:56.746Z,21
2019-02-20T06:37:59.241Z,23
2019-02-20T06:43:01.678Z,23
2019-02-20T06:48:04.126Z,26
2019-02-20T06:53:06.869Z,25
2019-02-20T06:58:09.032Z,26
2019-02-20T07:03:11.533Z,22
2019-02-20T07:08:13.976Z,20
2019-02-20T07:13:16.423Z,23
2019-02-20T07:18:18.878Z,24
2019-02-20T07:23:21.307Z,22
2019-02-20T07:28:23.807Z,21
2019-02-20T07:33:26.234Z,21
2019-02-20T07:38:28.689Z,18
2019-02-20T07:43:31.194Z,21
2019-02-20T07:48:33.601Z,19
2019-02-20T07:53:36.048Z,24
2019-02-20T07:58:38.628Z,16
2019-02-20T08:03:40.963Z,20
2019-02-20T08:08:43.462Z,20
2019-02-20T08:13:45.894Z,18
2019-02-20T08:18:48.372Z,21
2019-02-20T08:23:50.863Z,20
2019-02-20T08:28:53.245Z,22
2019-02-20T08:33:55.736Z,16
2019-02-20T08:38:58.227Z,16
2019-02-20T08:44:00.643Z,14
2019-02-20T08:49:03.080Z,19
2019-02-20T08:54:05.588Z,23
2019-02-20T08:59:07.990Z,17
2019-02-20T09:04:10.444Z,19
2019-02-20T09:09:12.916Z,15
2019-02-20T09:14:15.362Z,15
2019-02-20T09:19:17.855Z,19
2019-02-20T09:24:20.295Z,15
2019-02-20T09:29:22.729Z,17
2019-02-20T09:34:25.207Z,15
2019-02-20T09:39:27.674Z,15
2019-02-20T09:44:30.109Z,16
2019-02-20T09:49:32.676Z,12
2019-02-20T09:54:35.023Z,11
2019-02-20T09:59:37.481Z,10
2019-02-20T10:04:39.955Z,12
2019-02-20T10:09:42.452Z,11
2019-02-20T10:14:45.180Z,10
2019-02-20T10:19:47.394Z,12
2019-02-20T10:24:49.781Z,10
2019-02-20T10:29:52.232Z,10
2019-02-20T10:34:54.680Z,11
2019-02-20T10:39:57.276Z,12
2019-02-20T10:44:59.624Z,12
2019-02-20T10:55:04.652Z,10
2019-02-20T11:00:12.013Z,10
2019-02-20T11:05:09.448Z,10
2019-02-20T11:10:11.920Z,11
2019-02-20T11:15:14.388Z,13
2019-02-20T11:20:16.871Z,11
2019-02-20T11:25:19.293Z,10
2019-02-20T11:30:21.749Z,16
2019-02-20T11:35:24.220Z,13
2019-02-20T11:40:26.663Z,10
2019-02-20T11:45:29.203Z,9
2019-02-20T11:50:31.579Z,9
2019-02-20T11:55:34.057Z,10
2019-02-20T12:00:36.524Z,15
2019-02-20T12:05:38.949Z,15
2019-02-20T12:10:41.441Z,13
2019-02-20T12:15:43.925Z,11
2019-02-20T12:20:46.391Z,14
2019-02-20T12:25:48.768Z,15
2019-02-20T12:30:51.227Z,12
2019-02-20T12:35:53.855Z,16
2019-02-20T12:40:56.154Z,22
2019-02-20T12:45:58.588Z,17
2019-02-20T12:51:01.049Z,12
2019-02-20T12:56:09.773Z,14
2019-02-20T13:01:05.956Z,15
2019-02-20T13:06:08.435Z,11
2019-02-20T13:11:11.012Z,13
2019-02-20T13:16:13.523Z,15
2019-02-20T13:21:15.849Z,17
2019-02-20T13:26:18.265Z,17
2019-02-20T13:31:20.740Z,16
2019-02-20T13:36:23.187Z,16
2019-02-20T13:41:25.831Z,15
2019-02-20T13:46:28.125Z,17
2019-02-20T13:51:30.539Z,13
2019-02-20T13:56:33.018Z,16
2019-02-20T14:01:35.457Z,12
2019-02-20T14:06:37.910Z,12
2019-02-20T14:11:40.422Z,16
2019-02-20T14:16:42.844Z,13
2019-02-20T14:21:45.311Z,12
2019-02-20T14:26:47.757Z,14
2019-02-20T14:31:50.272Z,12
2019-02-20T14:36:52.678Z,20
2019-02-20T14:41:55.125Z,16
2019-02-20T14:46:57.581Z,17
2019-02-20T14:52:00.039Z,24
2019-02-20T14:57:02.789Z,16
2019-02-20T15:02:04.964Z,20
2019-02-20T15:07:07.409Z,16
2019-02-20T15:12:09.872Z,17
2019-02-20T15:17:12.380Z,18
2019-02-20T15:22:14.794Z,19
2019-02-20T15:27:19.095Z,23
2019-02-20T15:32:19.802Z,23
2019-02-20T15:37:22.180Z,18
2019-02-20T15:42:24.622Z,21
2019-02-20T15:47:27.093Z,18
2019-02-20T15:52:29.557Z,26
2019-02-20T15:57:37.980Z,26
2019-02-20T16:02:34.550Z,21
2019-02-20T16:07:37.027Z,27
2019-02-20T16:12:39.364Z,19
2019-02-20T16:17:41.796Z,18
2019-02-20T16:22:44.574Z,18
2019-02-20T16:27:47.732Z,18
2019-02-20T16:32:51.109Z,14
2019-02-20T16:37:51.634Z,22
2019-02-20T16:42:54.097Z,18
2019-02-20T16:47:56.569Z,18
2019-02-20T16:52:59.021Z,18
2019-02-20T16:58:01.519Z,17
2019-02-20T17:03:03.940Z,49
2019-02-20T17:08:06.410Z,42
2019-02-20T17:13:08.848Z,42
2019-02-20T17:18:11.355Z,21
2019-02-20T17:23:13.841Z,22
2019-02-20T17:28:16.313Z,20
2019-02-20T17:33:18.697Z,19
2019-02-20T17:43:23.662Z,19
2019-02-20T17:48:26.063Z,39
2019-02-20T17:53:28.572Z,20
2019-02-20T17:58:31.073Z,19
2019-02-20T18:03:33.442Z,20
2019-02-20T18:08:35.891Z,20
2019-02-20T18:13:38.361Z,14
2019-02-20T18:18:40.810Z,20
2019-02-20T18:23:43.270Z,15
2019-02-20T18:28:45.777Z,16
2019-02-20T18:33:48.179Z,15
2019-02-20T18:38:50.676Z,14
2019-02-20T18:43:53.098Z,22
2019-02-20T18:48:55.545Z,24
2019-02-20T18:53:58.039Z,19
2019-02-20T18:59:00.478Z,36
2019-02-20T19:04:02.927Z,33
2019-02-20T19:09:05.371Z,20
2019-02-20T19:14:08.986Z,24
2019-02-20T19:19:10.389Z,17
2019-02-20T19:24:12.754Z,18
2019-02-20T19:29:15.285Z,34
2019-02-20T19:34:17.710Z,20
2019-02-20T19:39:20.211Z,25
2019-02-20T19:44:22.594Z,25
2019-02-20T19:49:25.042Z,24
2019-02-20T19:54:27.486Z,24
2019-02-20T19:59:29.985Z,22
2019-02-20T20:04:32.434Z,23
2019-02-20T20:09:34.873Z,17
2019-02-20T20:14:37.652Z,18
2019-02-20T20:19:39.851Z,26
2019-02-20T20:24:42.227Z,20
2019-02-20T20:29:44.735Z,24
2019-02-20T20:34:47.153Z,19
2019-02-20T20:39:49.609Z,20
2019-02-20T20:44:52.097Z,22
2019-02-20T20:49:54.498Z,20
2019-02-20T20:54:56.982Z,20
2019-02-20T20:59:59.446Z,31
2019-02-20T21:05:01.951Z,31
2019-02-20T21:10:04.373Z,39
2019-02-20T21:15:06.795Z,27
2019-02-20T21:20:09.251Z,19
2019-02-20T21:25:13.698Z,20
2019-02-20T21:30:14.214Z,27
2019-02-20T21:35:16.666Z,27
2019-02-20T21:40:19.080Z,23
2019-02-20T21:45:21.542Z,22
2019-02-20T21:50:24.002Z,22
2019-02-20T21:55:26.445Z,23
2019-02-20T22:00:28.954Z,25
2019-02-20T22:05:31.473Z,26
2019-02-20T22:10:33.883Z,17
2019-02-20T22:15:36.357Z,20
2019-02-20T22:20:39.713Z,24
2019-02-20T22:25:41.178Z,21
2019-02-20T22:30:43.654Z,24
2019-02-20T22:35:46.113Z,18
2019-02-20T22:40:48.555Z,20
2019-02-20T22:45:51.009Z,18
2019-02-20T22:50:53.509Z,22
2019-02-20T22:55:55.952Z,16
2019-02-20T23:00:58.443Z,21
2019-02-20T23:06:00.885Z,22
2019-02-20T23:11:03.321Z,25
2019-02-20T23:16:05.764Z,21
2019-02-20T23:21:08.245Z,19
2019-02-20T23:26:10.677Z,25
2019-02-20T23:31:13.149Z,19
2019-02-20T23:36:15.766Z,25
2019-02-20T23:41:18.062Z,25
2019-02-20T23:46:20.522Z,20
2019-02-20T23:51:22.976Z,21
2019-02-20T23:56:25.465Z,23
